Time;durP1;ratioP1;P1;durP2;ratioP2;P2;SDS_P1;SDS_P2;PMS_P1;PMS_P2;Temp;Humidity;BMP_temperature;BMP_pressure;BME280_temperature;BME280_humidity;BME280_pressure;Samples;Min_cycle;Max_cycle;Signal;HPM_P1;HPM_P2
2022/10/30 00:00:00;;;;;;;11.15;4.53;;;19.10;99.90;;;;;;5034121;28;20175;-84
2022/10/30 00:02:26;;;;;;;14.70;4.75;;;19.00;99.90;;;;;;5034891;28;20170;-83
2022/10/30 00:04:51;;;;;;;10.48;3.53;;;19.10;99.90;;;;;;5033271;28;20625;-82
2022/10/30 00:07:17;;;;;;;21.83;4.47;;;19.10;99.90;;;;;;5033769;28;20184;-82
2022/10/30 00:09:42;;;;;;;10.00;3.33;;;19.00;99.90;;;;;;5044214;28;20164;-81
2022/10/30 00:12:08;;;;;;;15.82;4.32;;;19.00;99.90;;;;;;5034397;28;20709;-83
2022/10/30 00:14:33;;;;;;;13.25;3.45;;;18.90;99.90;;;;;;5033032;28;20215;-83
2022/10/30 00:17:04;;;;;;;12.25;4.07;;;18.90;99.90;;;;;;5030884;28;20584;-85
2022/10/30 00:19:30;;;;;;;10.07;4.70;;;18.90;99.90;;;;;;5032570;28;20168;-82
2022/10/30 00:21:56;;;;;;;10.95;4.18;;;18.90;99.90;;;;;;5030852;28;20180;-82
2022/10/30 00:24:22;;;;;;;17.95;4.57;;;18.80;99.90;;;;;;5031210;28;20257;-82
2022/10/30 00:26:48;;;;;;;12.68;3.90;;;18.80;99.90;;;;;;5045581;28;20196;-84
2022/10/30 00:29:23;;;;;;;10.02;4.55;;;18.80;99.90;;;;;;5046820;28;20167;-84
2022/10/30 00:31:49;;;;;;;5.75;3.55;;;18.80;99.90;;;;;;5053625;28;20199;-84
2022/10/30 00:34:15;;;;;;;8.00;4.00;;;18.70;99.90;;;;;;5053069;28;20160;-83
2022/10/30 00:36:40;;;;;;;10.20;3.85;;;18.70;99.90;;;;;;5047143;28;20203;-82
2022/10/30 00:39:06;;;;;;;17.48;4.05;;;18.60;99.90;;;;;;5046434;28;20176;-83
2022/10/30 00:41:32;;;;;;;8.00;4.53;;;18.50;99.90;;;;;;5038107;28;20164;-82
2022/10/30 00:43:58;;;;;;;12.80;4.57;;;18.50;99.90;;;;;;5031143;28;20193;-83
2022/10/30 00:46:37;;;;;;;19.50;3.95;;;18.40;99.90;;;;;;5030079;28;20190;-82
2022/10/30 00:49:09;;;;;;;23.27;4.45;;;18.40;99.90;;;;;;5031945;28;20200;-82
2022/10/30 00:51:38;;;;;;;13.45;4.40;;;18.30;99.90;;;;;;5032751;28;20600;-81
2022/10/30 00:54:05;;;;;;;9.43;4.30;;;18.40;99.90;;;;;;5035473;28;20175;-81
2022/10/30 00:56:32;;;;;;;7.70;4.32;;;18.30;99.90;;;;;;5036868;28;20168;-82
2022/10/30 00:59:09;;;;;;;15.13;4.43;;;18.20;99.90;;;;;;5035523;28;20171;-84
2022/10/30 01:01:41;;;;;;;11.57;4.70;;;18.40;99.90;;;;;;5035324;28;20172;-82
2022/10/30 01:04:07;;;;;;;10.95;4.18;;;18.20;99.90;;;;;;5035189;28;20637;-83
2022/10/30 01:06:36;;;;;;;10.65;4.45;;;18.20;99.90;;;;;;5033669;28;20188;-82
2022/10/30 01:09:03;;;;;;;10.75;4.13;;;18.30;99.90;;;;;;5035119;28;20652;-82
2022/10/30 01:11:56;;;;;;;;;;;;;;;;;;;;;
2022/10/30 01:14:44;;;;;;;23.50;4.53;;;18.20;99.90;;;;;;5035225;28;20195;-81
2022/10/30 01:17:30;;;;;;;13.18;4.10;;;18.10;99.90;;;;;;5034602;28;20562;-84
2022/10/30 01:20:24;;;;;;;6.35;4.15;;;18.20;99.90;;;;;;5035131;28;20164;-82
2022/10/30 01:23:22;;;;;;;20.70;4.93;;;18.20;99.90;;;;;;5034867;28;20164;-81
2022/10/30 01:26:05;;;;;;;22.17;4.40;;;18.20;99.90;;;;;;5033438;28;20263;-82
2022/10/30 01:28:39;;;;;;;7.35;4.30;;;18.20;99.90;;;;;;5033520;28;20580;-83
2022/10/30 01:31:41;;;;;;;16.52;4.95;;;18.20;99.90;;;;;;5033517;28;20695;-83
2022/10/30 01:34:30;;;;;;;8.85;4.05;;;18.20;99.90;;;;;;5033463;28;20187;-81
2022/10/30 01:37:14;;;;;;;22.20;4.15;;;18.10;99.90;;;;;;5032789;28;20253;-81
2022/10/30 01:39:40;;;;;;;11.18;4.30;;;18.10;99.90;;;;;;5032880;28;20191;-82
2022/10/30 01:42:43;;;;;;;11.02;4.78;;;18.10;99.90;;;;;;5033600;28;20167;-84
2022/10/30 01:45:18;;;;;;;8.38;4.13;;;18.20;99.90;;;;;;5033609;28;20195;-81
2022/10/30 01:48:16;;;;;;;8.25;3.70;;;18.30;99.90;;;;;;5033042;28;20180;-82
2022/10/30 01:50:56;;;;;;;12.93;4.00;;;18.20;99.90;;;;;;5026022;28;20274;-82
2022/10/30 01:53:32;;;;;;;11.85;3.75;;;18.20;99.90;;;;;;5034316;28;20214;-81
2022/10/30 01:56:12;;;;;;;10.52;4.68;;;18.20;99.90;;;;;;5033088;28;20312;-82
2022/10/30 01:59:04;;;;;;;9.45;4.25;;;18.20;99.90;;;;;;5032707;28;20566;-83
2022/10/30 02:01:34;;;;;;;18.25;5.28;;;18.10;99.90;;;;;;5033292;28;20202;-83
2022/10/30 02:04:00;;;;;;;12.95;3.72;;;18.00;99.90;;;;;;5032743;28;20200;-82
2022/10/30 02:06:26;;;;;;;12.50;4.63;;;17.90;99.90;;;;;;5034330;28;20179;-82
2022/10/30 02:08:55;;;;;;;14.68;4.55;;;17.80;99.90;;;;;;5032796;28;20160;-83
2022/10/30 02:11:22;;;;;;;12.57;4.07;;;17.80;99.90;;;;;;5032419;28;20539;-83
2022/10/30 02:13:48;;;;;;;23.00;5.13;;;17.70;99.90;;;;;;5032423;28;20660;-82
2022/10/30 02:16:14;;;;;;;8.77;4.63;;;17.70;99.90;;;;;;5034139;28;20326;-83
2022/10/30 02:18:40;;;;;;;17.52;5.10;;;17.80;99.90;;;;;;5033420;28;20275;-82
2022/10/30 02:21:07;;;;;;;14.20;4.70;;;17.80;99.90;;;;;;5033536;28;20195;-82
2022/10/30 02:23:36;;;;;;;16.35;4.47;;;17.70;99.90;;;;;;5032541;28;20190;-83
2022/10/30 02:26:02;;;;;;;12.02;5.28;;;17.50;99.90;;;;;;5032447;28;20222;-82
2022/10/30 02:28:28;;;;;;;14.15;4.72;;;17.50;99.90;;;;;;5033156;28;20250;-82
2022/10/30 02:30:53;;;;;;;9.68;4.30;;;17.50;99.90;;;;;;5033281;28;20524;-83
2022/10/30 02:33:19;;;;;;;16.85;4.90;;;17.60;99.90;;;;;;5031999;28;20207;-81
2022/10/30 02:35:44;;;;;;;18.42;5.57;;;17.70;99.90;;;;;;5032177;28;20218;-82
2022/10/30 02:38:10;;;;;;;18.30;5.10;;;17.70;99.90;;;;;;5032113;28;20204;-82
2022/10/30 02:40:36;;;;;;;25.52;5.07;;;17.60;99.90;;;;;;5031974;28;20178;-83
2022/10/30 02:43:01;;;;;;;11.70;5.13;;;17.50;99.90;;;;;;5031606;28;20168;-81
2022/10/30 02:45:28;;;;;;;10.13;4.10;;;17.40;99.90;;;;;;5031806;28;20172;-82
2022/10/30 02:47:53;;;;;;;21.55;5.13;;;17.50;99.90;;;;;;5031807;28;20213;-83
2022/10/30 02:50:19;;;;;;;11.85;4.68;;;17.50;99.90;;;;;;5031624;28;20172;-82
2022/10/30 02:52:45;;;;;;;13.10;4.82;;;17.30;99.90;;;;;;5031786;28;20212;-83
2022/10/30 02:55:11;;;;;;;14.60;4.28;;;17.20;99.90;;;;;;5032015;28;20172;-83
2022/10/30 02:57:36;;;;;;;8.05;4.38;;;17.20;99.90;;;;;;5033059;28;20195;-82
2022/10/30 03:00:03;;;;;;;17.05;4.32;;;17.20;99.90;;;;;;5033021;28;20171;-83
2022/10/30 03:02:29;;;;;;;17.95;5.75;;;17.30;99.90;;;;;;5031505;28;20172;-82
2022/10/30 03:04:54;;;;;;;10.77;5.15;;;17.10;99.90;;;;;;5033123;28;20176;-82
2022/10/30 03:07:20;;;;;;;21.33;5.05;;;17.30;99.90;;;;;;5031470;28;20195;-83
2022/10/30 03:09:47;;;;;;;15.23;5.20;;;17.30;99.90;;;;;;5032972;28;20530;-82
2022/10/30 03:12:12;;;;;;;17.60;5.25;;;17.20;99.90;;;;;;5032644;28;20609;-82
2022/10/30 03:14:38;;;;;;;17.17;5.72;;;17.10;99.90;;;;;;5032267;28;20183;-83
2022/10/30 03:17:04;;;;;;;10.40;4.82;;;17.00;99.90;;;;;;5032402;28;20215;-83
2022/10/30 03:19:29;;;;;;;11.27;4.32;;;16.90;99.90;;;;;;5031241;28;20175;-83
2022/10/30 03:21:55;;;;;;;14.15;4.53;;;16.90;99.90;;;;;;5032472;28;20203;-82
2022/10/30 03:24:20;;;;;;;8.20;4.53;;;16.90;99.90;;;;;;5032513;28;20200;-83
2022/10/30 03:26:46;;;;;;;11.40;5.68;;;16.90;99.90;;;;;;5030963;28;20692;-82
2022/10/30 03:29:12;;;;;;;13.77;5.25;;;16.90;99.90;;;;;;5031063;28;20255;-83
2022/10/30 03:31:38;;;;;;;10.90;5.55;;;17.00;99.90;;;;;;5032091;28;20199;-83
2022/10/30 03:34:03;;;;;;;13.77;5.28;;;17.10;99.90;;;;;;5032280;28;20175;-83
2022/10/30 03:36:29;;;;;;;10.85;5.32;;;17.10;99.90;;;;;;5032044;28;20160;-83
2022/10/30 03:38:55;;;;;;;8.43;4.35;;;17.10;99.90;;;;;;5031222;28;20160;-83
2022/10/30 03:41:21;;;;;;;14.90;5.28;;;17.00;99.90;;;;;;5030929;28;20254;-82
2022/10/30 03:43:46;;;;;;;13.88;4.57;;;17.00;99.90;;;;;;5032267;28;20175;-81
2022/10/30 03:46:12;;;;;;;12.73;5.88;;;17.00;99.90;;;;;;5030784;28;20175;-83
2022/10/30 03:48:38;;;;;;;16.75;5.50;;;17.00;99.90;;;;;;5032285;28;20600;-81
2022/10/30 03:51:03;;;;;;;25.70;5.88;;;16.90;99.90;;;;;;5032404;28;20168;-82
2022/10/30 03:53:29;;;;;;;15.57;4.07;;;17.00;99.90;;;;;;5030931;28;20677;-82
2022/10/30 03:56:04;;;;;;;12.80;5.45;;;16.80;99.90;;;;;;5032296;28;20210;-81
2022/10/30 03:58:29;;;;;;;7.75;4.57;;;16.90;99.90;;;;;;5032034;28;20198;-82
2022/10/30 04:01:03;;;;;;;7.68;4.72;;;16.90;99.90;;;;;;5031009;28;20168;-81
2022/10/30 04:03:29;;;;;;;19.60;5.47;;;16.60;99.90;;;;;;5031987;28;20160;-83
2022/10/30 04:05:55;;;;;;;13.88;4.38;;;16.60;99.90;;;;;;5032295;28;20167;-82
2022/10/30 04:08:20;;;;;;;10.70;4.45;;;16.60;99.90;;;;;;5032108;28;20227;-83
2022/10/30 04:10:46;;;;;;;10.13;4.97;;;16.60;99.90;;;;;;5030883;28;20171;-83
2022/10/30 04:13:14;;;;;;;17.45;5.75;;;16.70;99.90;;;;;;5032066;28;20257;-83
2022/10/30 04:15:40;;;;;;;10.15;5.75;;;16.60;99.90;;;;;;5030754;28;20961;-82
2022/10/30 04:18:09;;;;;;;7.40;4.15;;;16.80;99.90;;;;;;5030640;28;20238;-84
2022/10/30 04:20:34;;;;;;;5.65;4.38;;;16.80;99.90;;;;;;5031098;28;20239;-84
2022/10/30 04:23:02;;;;;;;8.95;5.43;;;16.70;99.90;;;;;;5032065;28;20168;-82
2022/10/30 04:25:29;;;;;;;14.23;5.57;;;16.60;99.90;;;;;;5033087;28;20175;-84
2022/10/30 04:27:55;;;;;;;16.17;4.45;;;16.50;99.90;;;;;;5031982;28;20628;-83
2022/10/30 04:30:22;;;;;;;11.98;5.10;;;16.60;99.90;;;;;;5014551;28;20207;-83
2022/10/30 04:32:49;;;;;;;19.60;5.88;;;16.70;99.90;;;;;;5015852;28;20208;-83
2022/10/30 04:35:16;;;;;;;10.32;4.97;;;16.70;99.90;;;;;;5014964;28;20199;-83
2022/10/30 04:37:42;;;;;;;8.02;4.60;;;16.70;99.90;;;;;;5016234;28;20677;-83
2022/10/30 04:40:08;;;;;;;14.40;4.63;;;16.60;99.90;;;;;;5014621;28;20172;-83
2022/10/30 04:42:33;;;;;;;8.25;4.35;;;16.60;99.90;;;;;;5014634;28;20600;-83
2022/10/30 04:45:01;;;;;;;13.10;5.03;;;16.50;99.90;;;;;;5014667;28;20175;-83
2022/10/30 04:47:27;;;;;;;18.90;5.53;;;16.50;99.90;;;;;;5015782;28;20752;-83
2022/10/30 04:49:53;;;;;;;17.40;5.18;;;16.50;99.90;;;;;;5016998;28;20208;-82
2022/10/30 04:52:19;;;;;;;9.98;5.03;;;16.50;99.90;;;;;;5014430;28;20290;-83
2022/10/30 04:54:45;;;;;;;12.68;5.25;;;16.50;99.90;;;;;;5014159;28;20256;-82
2022/10/30 04:57:10;;;;;;;18.40;4.95;;;16.40;99.90;;;;;;5015615;28;20303;-82
2022/10/30 04:59:36;;;;;;;13.82;5.63;;;16.30;99.90;;;;;;5015558;28;20180;-82
2022/10/30 05:02:01;;;;;;;12.82;6.07;;;16.30;99.90;;;;;;5014252;28;20172;-82
2022/10/30 05:04:27;;;;;;;9.80;5.15;;;16.20;99.90;;;;;;5014356;28;20176;-82
2022/10/30 05:06:53;;;;;;;13.07;4.32;;;16.20;99.90;;;;;;5015474;28;20525;-82
2022/10/30 05:09:18;;;;;;;14.13;4.88;;;16.20;99.90;;;;;;5015212;28;20177;-82
2022/10/30 05:11:44;;;;;;;14.95;5.43;;;16.10;99.90;;;;;;5014771;28;20200;-84
2022/10/30 05:14:09;;;;;;;12.07;6.20;;;16.20;99.90;;;;;;5013867;28;20189;-82
2022/10/30 05:16:35;;;;;;;17.77;5.22;;;16.20;99.90;;;;;;5013895;28;20678;-81
2022/10/30 05:19:00;;;;;;;19.52;5.50;;;16.20;99.90;;;;;;5014055;28;20177;-83
2022/10/30 05:21:27;;;;;;;14.57;5.05;;;16.20;99.90;;;;;;5014172;28;20173;-83
2022/10/30 05:23:52;;;;;;;11.23;4.93;;;16.10;99.90;;;;;;5014178;28;20169;-83
2022/10/30 05:26:18;;;;;;;13.90;4.40;;;16.10;99.90;;;;;;5014866;28;20171;-82
2022/10/30 05:28:43;;;;;;;17.08;5.68;;;16.10;99.90;;;;;;5013459;28;20171;-82
2022/10/30 05:31:09;;;;;;;14.23;5.60;;;16.10;99.90;;;;;;5013455;28;20173;-83
2022/10/30 05:33:35;;;;;;;23.70;5.22;;;16.10;99.90;;;;;;5013330;28;20682;-83
2022/10/30 05:36:00;;;;;;;18.15;5.15;;;16.10;99.90;;;;;;5014939;28;20176;-82
2022/10/30 05:38:26;;;;;;;11.85;5.82;;;16.00;99.90;;;;;;5013596;28;20191;-83
2022/10/30 05:40:51;;;;;;;13.02;5.80;;;15.80;99.90;;;;;;5013586;28;20230;-82
2022/10/30 05:43:17;;;;;;;14.00;5.70;;;15.90;99.90;;;;;;5015032;28;20172;-82
2022/10/30 05:45:42;;;;;;;21.75;5.45;;;15.80;99.90;;;;;;5013811;28;20179;-82
2022/10/30 05:48:08;;;;;;;13.52;4.90;;;15.80;99.90;;;;;;5013738;28;20304;-81
2022/10/30 05:50:33;;;;;;;13.35;5.15;;;15.70;99.90;;;;;;5014402;28;20168;-87
2022/10/30 05:53:02;;;;;;;17.48;5.80;;;15.80;99.90;;;;;;5013223;28;20634;-82
2022/10/30 05:55:29;;;;;;;22.60;5.70;;;15.80;99.90;;;;;;5015269;28;20165;-83
2022/10/30 05:57:56;;;;;;;9.77;4.53;;;15.70;99.90;;;;;;5013300;28;20196;-83
2022/10/30 06:00:21;;;;;;;15.15;5.47;;;15.60;99.90;;;;;;5025288;28;20168;-83
2022/10/30 06:02:47;;;;;;;12.05;5.18;;;15.70;99.90;;;;;;5033182;28;20168;-83
2022/10/30 06:05:12;;;;;;;21.15;6.47;;;15.70;99.90;;;;;;5032660;28;20168;-82
2022/10/30 06:07:38;;;;;;;12.60;4.95;;;15.60;99.90;;;;;;5034281;28;20187;-83
2022/10/30 06:10:04;;;;;;;15.02;5.93;;;15.60;99.90;;;;;;5032877;28;20175;-83
2022/10/30 06:12:30;;;;;;;6.93;4.70;;;15.60;99.90;;;;;;5032749;28;20338;-83
2022/10/30 06:14:55;;;;;;;18.25;6.60;;;15.60;99.90;;;;;;5033451;28;20229;-83
2022/10/30 06:17:21;;;;;;;13.40;5.25;;;15.70;99.90;;;;;;5032623;28;20593;-83
2022/10/30 06:19:46;;;;;;;14.32;5.40;;;15.70;99.90;;;;;;5032915;28;20187;-83
2022/10/30 06:22:12;;;;;;;13.50;4.38;;;15.80;99.90;;;;;;5034218;28;20531;-83
2022/10/30 06:24:37;;;;;;;15.65;6.22;;;15.70;99.90;;;;;;5033266;28;20180;-81
2022/10/30 06:27:03;;;;;;;7.32;5.03;;;15.70;99.90;;;;;;5034206;28;20550;-82
2022/10/30 06:29:29;;;;;;;16.30;4.90;;;15.70;99.90;;;;;;5036576;28;20179;-82
2022/10/30 06:31:54;;;;;;;12.40;5.25;;;15.60;99.90;;;;;;5040656;28;20229;-82
2022/10/30 06:34:20;;;;;;;9.90;5.15;;;15.50;99.90;;;;;;5045301;28;20164;-82
2022/10/30 06:36:45;;;;;;;21.40;6.20;;;15.60;99.90;;;;;;5036947;28;20188;-81
2022/10/30 06:39:11;;;;;;;15.43;5.85;;;15.60;99.90;;;;;;5032657;28;20176;-82
2022/10/30 06:41:37;;;;;;;21.30;6.78;;;15.60;99.90;;;;;;5032230;28;20684;-82
2022/10/30 06:44:02;;;;;;;16.35;6.38;;;15.60;99.90;;;;;;5032951;28;20164;-82
2022/10/30 06:46:28;;;;;;;12.02;6.53;;;15.70;99.90;;;;;;5038373;28;20164;-82
2022/10/30 06:48:54;;;;;;;12.88;5.30;;;15.70;99.90;;;;;;5049917;28;20206;-82
2022/10/30 06:51:20;;;;;;;19.98;6.63;;;15.60;99.90;;;;;;5050273;28;20156;-81
2022/10/30 06:53:45;;;;;;;24.98;5.85;;;15.70;99.90;;;;;;5049943;28;20172;-81
2022/10/30 06:56:11;;;;;;;14.38;5.75;;;15.70;99.90;;;;;;5051268;28;20163;-81
2022/10/30 06:58:38;;;;;;;16.75;5.32;;;15.60;99.90;;;;;;5052018;28;20210;-81
2022/10/30 07:01:07;;;;;;;8.85;4.93;;;15.60;99.90;;;;;;5052744;28;20172;-82
2022/10/30 07:03:33;;;;;;;10.90;5.72;;;15.60;99.90;;;;;;5045999;28;20168;-82
2022/10/30 07:05:59;;;;;;;10.80;5.63;;;15.60;99.90;;;;;;5044952;28;20176;-81
2022/10/30 07:08:24;;;;;;;12.70;5.35;;;15.60;99.90;;;;;;5044049;28;20221;-82
2022/10/30 07:10:50;;;;;;;18.83;6.10;;;15.80;99.90;;;;;;5048481;28;20183;-83
2022/10/30 07:13:16;;;;;;;16.67;5.93;;;15.90;99.90;;;;;;5041717;28;20207;-83
2022/10/30 07:15:42;;;;;;;11.35;5.40;;;15.80;99.90;;;;;;5052522;28;20199;-81
2022/10/30 07:18:09;;;;;;;14.63;5.47;;;15.90;99.90;;;;;;5050640;28;20527;-83
2022/10/30 07:20:35;;;;;;;19.50;5.90;;;16.10;99.90;;;;;;5047169;28;20250;-84
2022/10/30 07:23:01;;;;;;;23.23;6.78;;;16.20;99.90;;;;;;5036882;28;20174;-82
2022/10/30 07:25:27;;;;;;;15.75;5.90;;;16.20;99.90;;;;;;5033997;28;20179;-84
2022/10/30 07:27:54;;;;;;;11.90;5.43;;;16.30;99.90;;;;;;5032892;28;20187;-83
2022/10/30 07:30:22;;;;;;;15.30;5.32;;;16.40;99.90;;;;;;5032884;28;20193;-83
2022/10/30 07:32:59;;;;;;;21.92;6.75;;;16.40;99.90;;;;;;5031774;28;20326;-82
2022/10/30 07:35:25;;;;;;;21.25;6.10;;;16.50;99.90;;;;;;5031641;28;20561;-82
2022/10/30 07:37:51;;;;;;;18.33;5.88;;;16.50;99.90;;;;;;5032779;28;20271;-82
2022/10/30 07:40:17;;;;;;;20.35;5.97;;;16.40;99.90;;;;;;5033210;28;20644;-85
2022/10/30 07:42:43;;;;;;;20.70;6.15;;;16.50;99.90;;;;;;5032869;28;20197;-81
2022/10/30 07:45:09;;;;;;;9.43;5.57;;;16.60;99.90;;;;;;5031057;28;20194;-84
2022/10/30 07:47:42;;;;;;;10.50;5.22;;;16.70;99.90;;;;;;5032245;28;20222;-84
2022/10/30 07:50:09;;;;;;;11.63;6.57;;;16.80;99.90;;;;;;5031683;28;20170;-81
2022/10/30 07:52:35;;;;;;;19.50;7.07;;;16.90;99.90;;;;;;5032810;28;20686;-82
2022/10/30 07:55:00;;;;;;;21.90;7.47;;;17.00;99.90;;;;;;5032927;28;20170;-82
2022/10/30 07:57:26;;;;;;;17.55;7.78;;;17.10;99.90;;;;;;5031467;28;20223;-82
2022/10/30 07:59:51;;;;;;;14.43;6.70;;;17.10;99.90;;;;;;5032476;28;20580;-83
2022/10/30 08:02:17;;;;;;;13.82;6.80;;;17.20;99.90;;;;;;5032727;28;20168;-83
2022/10/30 08:04:43;;;;;;;16.85;7.18;;;17.40;99.90;;;;;;5031097;28;20295;-84
2022/10/30 08:07:08;;;;;;;19.92;6.18;;;17.50;99.90;;;;;;5032541;28;20180;-82
2022/10/30 08:09:34;;;;;;;9.43;5.90;;;17.60;99.90;;;;;;5032613;28;20170;-83
2022/10/30 08:11:59;;;;;;;13.48;6.90;;;17.80;99.90;;;;;;5032413;28;20211;-86
2022/10/30 08:14:25;;;;;;;18.50;7.18;;;17.90;99.90;;;;;;5032582;28;20229;-82
2022/10/30 08:16:51;;;;;;;19.80;7.85;;;18.10;99.90;;;;;;5032780;28;20811;-81
2022/10/30 08:19:16;;;;;;;20.83;6.88;;;18.20;99.90;;;;;;5030996;28;20168;-85
2022/10/30 08:21:42;;;;;;;14.50;8.25;;;18.30;99.90;;;;;;5032399;28;20216;-83
2022/10/30 08:24:08;;;;;;;22.40;8.00;;;18.40;99.90;;;;;;5032570;28;20533;-84
2022/10/30 08:26:34;;;;;;;17.33;6.80;;;18.60;99.90;;;;;;5026680;28;20184;-81
2022/10/30 08:29:00;;;;;;;22.00;7.35;;;18.50;99.90;;;;;;5028520;28;20203;-81
2022/10/30 08:31:26;;;;;;;19.83;7.05;;;18.50;99.90;;;;;;5014594;28;20212;-85
2022/10/30 08:33:51;;;;;;;27.17;7.30;;;18.60;99.90;;;;;;5018399;28;20187;-82
2022/10/30 08:36:17;;;;;;;20.48;8.07;;;18.70;99.90;;;;;;5023957;28;20183;-86
2022/10/30 08:38:42;;;;;;;40.00;7.88;;;18.70;99.90;;;;;;5018225;28;20187;-82
2022/10/30 08:41:08;;;;;;;19.40;7.40;;;18.80;99.90;;;;;;5013822;28;20202;-82
2022/10/30 08:43:33;;;;;;;23.25;9.70;;;19.00;99.90;;;;;;5011542;28;20208;-86
2022/10/30 08:45:59;;;;;;;23.52;11.57;;;19.00;99.90;;;;;;5012650;28;20192;-85
2022/10/30 08:48:25;;;;;;;21.70;13.88;;;18.90;99.90;;;;;;5011827;28;20188;-86
2022/10/30 08:51:05;;;;;;;28.13;10.88;;;19.00;99.90;;;;;;5013166;28;20572;-93
2022/10/30 08:53:33;;;;;;;28.98;9.77;;;18.90;99.90;;;;;;5012079;28;20216;-83
2022/10/30 08:55:58;;;;;;;19.35;9.23;;;18.90;99.90;;;;;;5010749;28;20184;-82
2022/10/30 08:58:24;;;;;;;30.05;9.50;;;18.80;99.90;;;;;;5009808;28;20205;-83
2022/10/30 09:00:49;;;;;;;34.30;9.45;;;18.80;99.90;;;;;;5009736;28;20211;-83
2022/10/30 09:03:15;;;;;;;22.17;9.85;;;18.80;99.90;;;;;;5011726;28;20171;-83
2022/10/30 09:05:41;;;;;;;27.50;9.82;;;18.80;99.90;;;;;;5010136;28;20483;-81
2022/10/30 09:08:06;;;;;;;29.17;9.73;;;18.80;99.90;;;;;;5009818;28;20721;-82
2022/10/30 09:10:32;;;;;;;19.25;9.15;;;18.80;99.90;;;;;;5012072;28;20227;-83
2022/10/30 09:12:58;;;;;;;14.07;8.63;;;18.80;99.90;;;;;;5012977;28;21151;-86
2022/10/30 09:15:25;;;;;;;20.27;8.43;;;18.70;99.90;;;;;;5015751;28;20195;-83
2022/10/30 09:17:59;;;;;;;20.60;9.23;;;18.60;99.90;;;;;;5014886;28;20287;-79
2022/10/30 09:20:25;;;;;;;20.55;8.50;;;18.50;99.90;;;;;;5015829;28;20185;-85
2022/10/30 09:22:51;;;;;;;23.60;9.00;;;18.70;99.90;;;;;;5015322;28;20169;-85
2022/10/30 09:25:17;;;;;;;18.05;8.07;;;19.00;99.90;;;;;;5014135;28;20180;-83
2022/10/30 09:27:42;;;;;;;18.33;8.30;;;19.10;99.90;;;;;;5012849;28;20243;-84
2022/10/30 09:30:08;;;;;;;19.42;7.40;;;19.30;99.90;;;;;;5013249;28;20549;-84
2022/10/30 09:32:34;;;;;;;18.52;7.47;;;19.30;99.90;;;;;;5015796;28;20215;-84
2022/10/30 09:34:59;;;;;;;29.23;8.18;;;19.30;99.90;;;;;;5015562;28;20161;-84
2022/10/30 09:37:26;;;;;;;26.58;7.75;;;19.50;99.90;;;;;;5013449;28;20666;-82
2022/10/30 09:39:52;;;;;;;17.20;7.28;;;19.70;99.90;;;;;;5014650;28;20559;-84
2022/10/30 09:42:35;;;;;;;24.38;7.25;;;19.50;99.90;;;;;;5015444;28;20679;-84
2022/10/30 09:45:19;;;;;;;22.83;6.95;;;19.50;99.90;;;;;;5013928;28;20176;-83
2022/10/30 09:48:02;;;;;;;13.63;6.53;;;19.80;99.90;;;;;;5015032;28;20199;-84
2022/10/30 09:50:54;;;;;;;16.20;6.25;;;19.90;99.90;;;;;;5015596;28;20172;-83
2022/10/30 09:53:40;;;;;;;13.45;7.28;;;20.00;99.90;;;;;;5014257;28;20216;-83
2022/10/30 09:56:14;;;;;;;14.45;6.50;;;20.20;99.90;;;;;;5015361;28;20173;-84
2022/10/30 09:58:45;;;;;;;20.05;6.78;;;20.20;99.90;;;;;;5015596;28;20175;-84
2022/10/30 10:01:26;;;;;;;9.80;6.07;;;20.20;99.90;;;;;;5014519;28;20542;-85
2022/10/30 10:04:19;;;;;;;19.85;6.10;;;20.30;99.90;;;;;;5015512;28;20223;-84
2022/10/30 10:06:49;;;;;;;19.55;6.28;;;20.30;99.90;;;;;;5014746;28;20643;-84
2022/10/30 10:09:19;;;;;;;13.98;5.90;;;20.50;99.90;;;;;;5014185;28;20175;-81
2022/10/30 10:11:54;;;;;;;10.40;4.97;;;20.70;99.90;;;;;;5014709;28;20188;-81
2022/10/30 10:14:26;;;;;;;12.27;5.25;;;20.60;99.90;;;;;;5014275;28;20250;-82
2022/10/30 10:16:53;;;;;;;19.55;5.70;;;20.30;99.90;;;;;;5014140;28;20188;-84
2022/10/30 10:19:42;;;;;;;12.82;4.97;;;20.30;99.90;;;;;;5014193;28;20210;-84
2022/10/30 10:22:20;;;;;;;14.38;5.68;;;20.40;99.90;;;;;;5013404;28;20176;-83
2022/10/30 10:24:46;;;;;;;12.73;5.75;;;20.40;99.90;;;;;;5014216;28;20171;-81
2022/10/30 10:27:37;;;;;;;20.92;5.22;;;20.40;99.90;;;;;;5012923;28;20196;-83
2022/10/30 10:30:23;;;;;;;15.15;5.15;;;20.50;99.90;;;;;;5014221;28;20176;-82
2022/10/30 10:33:13;;;;;;;16.73;5.65;;;20.60;99.90;;;;;;5012762;28;20235;-83
2022/10/30 10:35:49;;;;;;;14.07;5.53;;;20.60;99.90;;;;;;5014430;28;20168;-82
2022/10/30 10:38:32;;;;;;;18.20;5.53;;;20.80;99.90;;;;;;5018840;28;20557;-84
2022/10/30 10:41:12;;;;;;;16.20;5.13;;;20.90;99.90;;;;;;5017563;28;20240;-85
2022/10/30 10:43:56;;;;;;;19.27;6.70;;;21.00;99.90;;;;;;5035549;28;20274;-85
2022/10/30 10:46:47;;;;;;;10.93;5.28;;;21.00;99.90;;;;;;5020977;28;20176;-84
2022/10/30 10:49:39;;;;;;;14.63;6.55;;;21.00;99.90;;;;;;5022928;28;20286;-83
2022/10/30 10:52:15;;;;;;;14.60;5.47;;;21.10;99.90;;;;;;5019090;28;20199;-84
2022/10/30 10:54:56;;;;;;;18.02;6.00;;;20.70;99.90;;;;;;5029151;28;20176;-84
2022/10/30 10:57:42;;;;;;;19.15;6.65;;;20.70;99.90;;;;;;5041539;28;20270;-85
2022/10/30 11:00:17;;;;;;;19.48;5.03;;;21.00;99.90;;;;;;5040426;28;20182;-87
2022/10/30 11:03:08;;;;;;;15.30;7.45;;;21.20;99.90;;;;;;5024360;28;20724;-85
2022/10/30 11:05:46;;;;;;;11.52;6.40;;;21.20;99.90;;;;;;5021761;28;20195;-83
2022/10/30 11:08:20;;;;;;;12.75;5.72;;;21.20;99.90;;;;;;5020273;28;20200;-83
2022/10/30 11:10:50;;;;;;;26.63;6.53;;;21.30;99.90;;;;;;5024845;28;20658;-82
2022/10/30 11:13:16;;;;;;;26.70;10.07;;;21.40;99.90;;;;;;5013071;28;20267;-83
2022/10/30 11:16:20;;;;;;;25.67;10.60;;;21.40;99.90;;;;;;5020207;28;20207;-84
2022/10/30 11:18:49;;;;;;;11.32;6.22;;;21.20;99.90;;;;;;5021330;28;20195;-84
2022/10/30 11:21:20;;;;;;;15.43;5.90;;;21.10;99.90;;;;;;5017439;28;20205;-83
2022/10/30 11:23:47;;;;;;;16.50;5.13;;;21.10;99.90;;;;;;5015369;28;20164;-84
2022/10/30 11:26:16;;;;;;;16.23;5.53;;;21.10;99.90;;;;;;5032248;28;20164;-85
2022/10/30 11:29:03;;;;;;;15.35;5.53;;;21.40;99.90;;;;;;5033777;28;20246;-90
2022/10/30 11:31:36;;;;;;;22.23;5.80;;;21.50;99.90;;;;;;5033473;28;20214;-87
2022/10/30 11:34:17;;;;;;;9.30;5.20;;;21.50;99.90;;;;;;5032283;28;20520;-84
2022/10/30 11:36:48;;;;;;;10.60;4.93;;;21.60;99.90;;;;;;5028629;28;20208;-84
2022/10/30 11:39:40;;;;;;;23.20;4.75;;;21.60;99.90;;;;;;5031601;28;20231;-84
2022/10/30 11:42:17;;;;;;;20.63;4.88;;;21.70;99.90;;;;;;5031786;28;20653;-83
2022/10/30 11:44:47;;;;;;;21.67;5.07;;;21.70;99.90;;;;;;5031728;28;20159;-84
2022/10/30 11:47:14;;;;;;;11.70;4.68;;;22.00;99.90;;;;;;5030907;28;20188;-84
2022/10/30 11:49:49;;;;;;;11.75;4.78;;;22.00;99.90;;;;;;5031270;28;20255;-83
2022/10/30 11:52:18;;;;;;;12.80;4.07;;;22.00;99.90;;;;;;5031344;28;20198;-83
2022/10/30 11:54:48;;;;;;;20.05;5.28;;;21.90;99.90;;;;;;5031405;28;20175;-83
2022/10/30 11:57:21;;;;;;;17.10;4.72;;;21.90;99.90;;;;;;5031069;28;20184;-84
2022/10/30 11:59:50;;;;;;;15.82;4.32;;;22.00;99.90;;;;;;5032669;28;20820;-83
2022/10/30 12:02:20;;;;;;;24.02;4.82;;;21.80;99.90;;;;;;5031988;28;20167;-83
2022/10/30 12:04:47;;;;;;;8.02;4.38;;;21.80;99.90;;;;;;5031317;28;20168;-83
2022/10/30 12:07:21;;;;;;;12.52;4.85;;;21.80;99.90;;;;;;5032346;28;20191;-84
2022/10/30 12:09:47;;;;;;;18.60;7.57;;;21.80;99.90;;;;;;5031319;28;20205;-83
2022/10/30 12:12:31;;;;;;;11.18;5.05;;;22.00;99.90;;;;;;5030824;28;20204;-84
2022/10/30 12:15:13;;;;;;;38.97;6.10;;;22.00;99.90;;;;;;5031280;28;20225;-84
2022/10/30 12:17:39;;;;;;;10.35;4.45;;;21.80;99.90;;;;;;5031185;28;20203;-83
2022/10/30 12:20:06;;;;;;;10.82;4.07;;;22.00;99.90;;;;;;5032820;28;20171;-84
2022/10/30 12:22:34;;;;;;;10.23;5.03;;;22.00;99.90;;;;;;5031353;28;20167;-83
2022/10/30 12:25:05;;;;;;;19.30;5.55;;;21.60;99.90;;;;;;5032426;28;20313;-83
2022/10/30 12:27:35;;;;;;;10.43;5.88;;;21.50;99.90;;;;;;5031225;28;20723;-83
2022/10/30 12:30:16;;;;;;;14.63;5.25;;;21.80;99.90;;;;;;5032035;28;20175;-83
2022/10/30 12:32:59;;;;;;;18.58;5.32;;;21.90;99.90;;;;;;5032482;28;20694;-84
2022/10/30 12:35:36;;;;;;;17.65;5.20;;;22.00;99.90;;;;;;5031621;28;20167;-82
2022/10/30 12:38:05;;;;;;;12.95;5.10;;;22.00;99.90;;;;;;5032114;28;20665;-85
2022/10/30 12:40:37;;;;;;;7.55;3.72;;;22.00;99.90;;;;;;5031453;28;20247;-84
2022/10/30 12:43:21;;;;;;;7.93;4.63;;;22.00;99.90;;;;;;5031164;28;20195;-83
2022/10/30 12:45:50;;;;;;;7.90;4.15;;;22.00;99.90;;;;;;5032493;28;20171;-83
2022/10/30 12:48:30;;;;;;;16.17;5.45;;;22.00;99.90;;;;;;5035400;28;20179;-83
2022/10/30 12:51:02;;;;;;;20.92;4.50;;;22.10;99.90;;;;;;5034816;28;20175;-83